Time,TemperatureF,DewpointF,PressureIn,WindDirection,WindDirectionDegrees,WindSpeedMPH,WindSpeedGustMPH,Humidity,HourlyPrecipIn,Conditions,Clouds,dailyrainin,SoftwareType,DateUTC
2013-05-24 00:03:00,67.0,67.0,-100.00,East,90,1.0,5.0,99,0.00,,,-99.99,,2013-05-24 04:03:00,
2013-05-24 00:12:00,67.0,67.0,-100.00,East,85,1.0,4.0,99,0.00,,,-99.99,,2013-05-24 04:12:00,
2013-05-24 00:22:00,67.0,67.0,-100.00,East,80,1.0,4.0,99,0.00,,,-99.99,,2013-05-24 04:22:00,
2013-05-24 00:33:00,67.0,67.0,-100.00,East,90,1.0,4.0,99,0.01,,,-99.99,,2013-05-24 04:33:00,
2013-05-24 00:42:00,66.0,66.0,-100.00,SE,135,2.0,6.0,99,0.00,,,-99.99,,2013-05-24 04:42:00,
2013-05-24 00:53:00,67.0,67.0,-100.00,East,90,1.0,5.0,99,0.00,,,-99.99,,2013-05-24 04:53:00,
2013-05-24 01:02:00,66.0,66.0,-100.00,East,90,1.0,4.0,99,0.00,,,-99.99,,2013-05-24 05:02:00,
2013-05-24 01:12:00,66.0,66.0,-100.00,East,90,2.0,6.0,99,0.00,,,-99.99,,2013-05-24 05:12:00,
2013-05-24 01:22:00,66.0,66.0,-100.00,ENE,75,2.0,4.0,99,0.03,,,-99.99,,2013-05-24 05:22:00,
2013-05-24 01:32:00,66.0,66.0,-100.00,ENE,75,2.0,5.0,99,0.00,,,-99.99,,2013-05-24 05:32:00,
2013-05-24 01:42:00,66.0,66.0,-100.00,East,85,2.0,6.0,99,0.00,,,-99.99,,2013-05-24 05:42:00,
2013-05-24 01:52:00,66.0,66.0,-100.00,ENE,75,2.0,6.0,99,0.18,,,-99.99,,2013-05-24 05:52:00,
2013-05-24 02:02:00,66.0,66.0,-100.00,East,85,1.0,3.0,99,0.10,,,-99.99,,2013-05-24 06:02:00,
2013-05-24 02:12:00,66.0,66.0,-100.00,ENE,65,1.0,4.0,99,0.03,,,-99.99,,2013-05-24 06:12:00,
2013-05-24 02:21:00,66.0,66.0,-100.00,ENE,65,1.0,3.0,99,0.04,,,-99.99,,2013-05-24 06:21:00,
2013-05-24 02:32:00,66.0,66.0,-100.00,East,80,1.0,4.0,99,0.04,,,-99.99,,2013-05-24 06:32:00,
2013-05-24 02:42:00,66.0,66.0,-100.00,East,85,1.0,4.0,99,0.03,,,-99.99,,2013-05-24 06:42:00,
2013-05-24 02:52:00,66.0,66.0,-100.00,East,90,1.0,6.0,99,0.00,,,-99.99,,2013-05-24 06:52:00,
2013-05-24 03:01:00,65.0,65.0,-100.00,East,95,2.0,4.0,99,0.06,,,-99.99,,2013-05-24 07:01:00,
2013-05-24 03:11:00,65.0,65.0,-100.00,East,100,1.0,4.0,99,0.03,,,-99.99,,2013-05-24 07:11:00,
2013-05-24 03:22:00,65.0,65.0,-100.00,East,90,1.0,5.0,99,0.08,,,-99.99,,2013-05-24 07:22:00,
2013-05-24 03:32:00,65.0,65.0,-100.00,East,90,1.0,6.0,99,0.24,,,-99.99,,2013-05-24 07:32:00,
2013-05-24 03:42:00,65.0,65.0,-100.00,SE,135,1.0,4.0,99,0.03,,,-99.99,,2013-05-24 07:42:00,
2013-05-24 03:52:00,65.0,65.0,-100.00,ENE,70,1.0,4.0,99,0.06,,,-99.99,,2013-05-24 07:52:00,
2013-05-24 04:02:00,65.0,65.0,-100.00,ENE,60,1.0,4.0,99,0.01,,,-99.99,,2013-05-24 08:02:00,
2013-05-24 04:11:00,65.0,65.0,-100.00,ENE,60,1.0,4.0,99,0.03,,,-99.99,,2013-05-24 08:11:00,
2013-05-24 04:22:00,65.0,65.0,-100.00,ENE,65,1.0,6.0,99,0.06,,,-99.99,,2013-05-24 08:22:00,
2013-05-24 04:33:00,65.0,65.0,-100.00,East,100,1.0,4.0,99,0.03,,,-99.99,,2013-05-24 08:33:00,
2013-05-24 04:42:00,65.0,65.0,-100.00,East,90,1.0,4.0,99,0.03,,,-99.99,,2013-05-24 08:42:00,
2013-05-24 04:52:00,65.0,65.0,-100.00,NE,55,1.0,4.0,99,0.00,,,-99.99,,2013-05-24 08:52:00,
2013-05-24 05:02:00,65.0,65.0,-100.00,East,90,1.0,4.0,99,0.03,,,-99.99,,2013-05-24 09:02:00,
2013-05-24 05:11:00,65.0,65.0,-100.00,ENE,70,1.0,4.0,99,0.01,,,-99.99,,2013-05-24 09:11:00,
2013-05-24 05:21:00,65.0,65.0,-100.00,ENE,70,1.0,4.0,99,0.01,,,-99.99,,2013-05-24 09:21:00,
2013-05-24 05:32:00,65.0,65.0,-100.00,East,90,1.0,4.0,99,0.03,,,-99.99,,2013-05-24 09:32:00,
2013-05-24 05:42:00,65.0,65.0,-100.00,East,85,1.0,2.0,99,0.06,,,-99.99,,2013-05-24 09:42:00,
2013-05-24 05:52:00,65.0,65.0,-100.00,East,90,1.0,2.0,99,0.01,,,-99.99,,2013-05-24 09:52:00,
2013-05-24 06:03:00,65.0,65.0,-100.00,East,90,1.0,3.0,99,0.00,,,-99.99,,2013-05-24 10:03:00,
2013-05-24 06:12:00,65.0,65.0,-100.00,SE,135,1.0,3.0,99,0.00,,,-99.99,,2013-05-24 10:12:00,
2013-05-24 06:22:00,65.0,65.0,-100.00,SE,135,2.0,4.0,99,0.00,,,-99.99,,2013-05-24 10:22:00,
2013-05-24 06:33:00,65.0,65.0,-100.00,ENE,75,1.0,3.0,99,0.00,,,-99.99,,2013-05-24 10:33:00,
2013-05-24 06:42:00,65.0,65.0,-100.00,North,-999,-999.0,-999.0,99,0.00,,,-99.99,,2013-05-24 10:42:00,
2013-05-24 06:52:00,65.0,65.0,-100.00,East,85,1.0,2.0,99,0.00,,,-99.99,,2013-05-24 10:52:00,
2013-05-24 07:02:00,65.0,65.0,-100.00,NE,55,1.0,3.0,99,0.00,,,-99.99,,2013-05-24 11:02:00,
2013-05-24 07:12:00,65.0,65.0,-100.00,East,90,1.0,4.0,99,0.00,,,-99.99,,2013-05-24 11:12:00,
2013-05-24 07:22:00,65.0,65.0,-100.00,SE,145,2.0,4.0,99,0.00,,,-99.99,,2013-05-24 11:22:00,
2013-05-24 07:32:00,65.0,65.0,-100.00,East,95,1.0,5.0,99,0.00,,,-99.99,,2013-05-24 11:32:00,
2013-05-24 07:42:00,65.0,65.0,-100.00,SE,135,2.0,4.0,99,0.00,,,-99.99,,2013-05-24 11:42:00,
2013-05-24 07:51:00,66.0,66.0,-100.00,SSE,155,2.0,4.0,99,0.00,,,-99.99,,2013-05-24 11:51:00,
2013-05-24 08:02:00,66.0,66.0,-100.00,SE,145,2.0,4.0,99,0.00,,,-99.99,,2013-05-24 12:02:00,
2013-05-24 08:11:00,66.0,66.0,-100.00,ESE,120,1.0,4.0,99,0.00,,,-99.99,,2013-05-24 12:11:00,
2013-05-24 08:22:00,66.0,66.0,-100.00,ESE,105,1.0,4.0,99,0.00,,,-99.99,,2013-05-24 12:22:00,
2013-05-24 08:32:00,66.0,66.0,-100.00,SW,215,2.0,4.0,99,0.00,,,-99.99,,2013-05-24 12:32:00,
2013-05-24 08:42:00,66.0,66.0,-100.00,SE,135,2.0,4.0,99,0.00,,,-99.99,,2013-05-24 12:42:00,
2013-05-24 08:52:00,67.0,67.0,-100.00,SE,140,2.0,4.0,99,0.00,,,-99.99,,2013-05-24 12:52:00,
2013-05-24 09:02:00,67.0,67.0,-100.00,SE,135,1.0,4.0,99,0.00,,,-99.99,,2013-05-24 13:02:00,
2013-05-24 09:11:00,67.0,67.0,-100.00,SE,145,2.0,4.0,99,0.00,,,-99.99,,2013-05-24 13:11:00,
2013-05-24 09:21:00,67.0,67.0,-100.00,SSE,155,3.0,4.0,99,0.00,,,-99.99,,2013-05-24 13:21:00,
2013-05-24 09:32:00,68.0,68.0,-100.00,SE,140,2.0,5.0,99,0.00,,,-99.99,,2013-05-24 13:32:00,
2013-05-24 09:42:00,68.0,68.0,-100.00,East,80,1.0,4.0,99,0.00,,,-99.99,,2013-05-24 13:42:00,
2013-05-24 09:52:00,68.0,68.0,-100.00,SE,145,2.0,6.0,99,0.00,,,-99.99,,2013-05-24 13:52:00,
2013-05-24 10:02:00,68.0,68.0,-100.00,North,-999,-999.0,-999.0,99,-99.99,,,-99.99,,2013-05-24 14:02:00,
2013-05-24 10:11:00,69.0,69.0,-100.00,East,90,1.0,5.0,99,0.00,,,-99.99,,2013-05-24 14:11:00,
2013-05-24 10:21:00,69.0,68.0,-100.00,SSE,150,2.0,4.0,98,0.00,,,-99.99,,2013-05-24 14:21:00,
2013-05-24 10:32:00,69.0,68.0,-100.00,North,-999,-999.0,-999.0,97,-99.99,,,-99.99,,2013-05-24 14:32:00,
2013-05-24 10:42:00,69.0,68.0,-100.00,SE,135,2.0,6.0,97,0.01,,,-99.99,,2013-05-24 14:42:00,
2013-05-24 10:52:00,69.0,67.0,-100.00,SE,135,2.0,7.0,94,0.00,,,-99.99,,2013-05-24 14:52:00,
2013-05-24 11:02:00,69.0,67.0,-100.00,SE,135,1.0,6.0,91,0.00,,,-99.99,,2013-05-24 15:02:00,
2013-05-24 11:11:00,70.0,66.0,-100.00,SE,145,2.0,6.0,87,0.00,,,-99.99,,2013-05-24 15:11:00,
2013-05-24 11:21:00,71.0,66.0,-100.00,SSE,160,2.0,6.0,84,0.00,,,-99.99,,2013-05-24 15:21:00,
2013-05-24 11:33:00,70.0,65.0,-100.00,SE,125,2.0,4.0,85,0.00,,,-99.99,,2013-05-24 15:33:00,
2013-05-24 11:43:00,69.0,65.0,-100.00,East,90,2.0,5.0,87,0.00,,,-99.99,,2013-05-24 15:43:00,
2013-05-24 11:52:00,69.0,64.0,-100.00,South,190,1.0,4.0,86,0.00,,,-99.99,,2013-05-24 15:52:00,
2013-05-24 12:03:00,69.0,64.0,-100.00,NW,315,1.0,6.0,85,0.00,,,-99.99,,2013-05-24 16:03:00,
2013-05-24 12:12:00,69.0,63.0,-100.00,West,280,2.0,8.0,81,0.00,,,-99.99,,2013-05-24 16:12:00,
2013-05-24 12:22:00,67.0,62.0,-100.00,WNW,285,5.0,12.0,83,0.01,,,-99.99,,2013-05-24 16:22:00,
2013-05-24 12:32:00,65.0,60.0,-100.00,West,260,4.0,12.0,84,0.00,,,-99.99,,2013-05-24 16:32:00,
2013-05-24 12:42:00,65.0,60.0,-100.00,SW,230,3.0,9.0,83,0.00,,,-99.99,,2013-05-24 16:42:00,
2013-05-24 12:52:00,65.0,60.0,-100.00,WNW,285,3.0,9.0,83,0.00,,,-99.99,,2013-05-24 16:52:00,
2013-05-24 13:02:00,64.0,59.0,-100.00,SW,220,3.0,14.0,83,0.00,,,-99.99,,2013-05-24 17:02:00,
2013-05-24 13:22:00,60.0,57.0,-100.00,WNW,300,4.0,13.0,87,0.14,,,-99.99,,2013-05-24 17:22:00,
2013-05-24 13:32:00,60.0,57.0,-100.00,WNW,285,2.0,9.0,90,0.00,,,-99.99,,2013-05-24 17:32:00,
2013-05-24 13:42:00,59.0,56.0,-100.00,West,275,4.0,12.0,89,0.00,,,-99.99,,2013-05-24 17:42:00,
2013-05-24 13:52:00,59.0,55.0,-100.00,WNW,300,2.0,9.0,85,0.00,,,-99.99,,2013-05-24 17:52:00,
2013-05-24 14:01:00,60.0,54.0,-100.00,South,175,1.0,7.0,83,0.00,,,-99.99,,2013-05-24 18:01:00,
2013-05-24 14:12:00,60.0,54.0,-100.00,West,260,3.0,10.0,81,0.00,,,-99.99,,2013-05-24 18:12:00,
2013-05-24 14:21:00,60.0,54.0,-100.00,West,265,1.0,10.0,81,0.00,,,-99.99,,2013-05-24 18:21:00,
2013-05-24 14:32:00,61.0,54.0,-100.00,NNW,335,1.0,7.0,78,0.00,,,-99.99,,2013-05-24 18:32:00,
2013-05-24 14:42:00,62.0,54.0,-100.00,South,175,2.0,8.0,76,0.00,,,-99.99,,2013-05-24 18:42:00,
2013-05-24 14:51:00,63.0,53.0,-100.00,WSW,255,3.0,11.0,71,0.00,,,-99.99,,2013-05-24 18:51:00,
2013-05-24 15:01:00,63.0,53.0,-100.00,WSW,255,4.0,9.0,70,0.00,,,-99.99,,2013-05-24 19:01:00,
2013-05-24 15:11:00,63.0,53.0,-100.00,West,260,3.0,11.0,70,0.00,,,-99.99,,2013-05-24 19:11:00,
2013-05-24 15:21:00,63.0,53.0,-100.00,South,180,2.0,14.0,70,0.00,,,-99.99,,2013-05-24 19:21:00,
2013-05-24 15:32:00,62.0,52.0,-100.00,West,275,3.0,9.0,70,0.00,,,-99.99,,2013-05-24 19:32:00,
2013-05-24 15:42:00,62.0,53.0,-100.00,SSE,150,4.0,9.0,72,0.00,,,-99.99,,2013-05-24 19:42:00,
2013-05-24 15:52:00,62.0,52.0,-100.00,West,260,2.0,11.0,68,0.00,,,-99.99,,2013-05-24 19:52:00,
2013-05-24 16:02:00,63.0,52.0,-100.00,WSW,255,5.0,9.0,67,0.00,,,-99.99,,2013-05-24 20:02:00,
2013-05-24 16:11:00,62.0,51.0,-100.00,NNW,335,2.0,12.0,67,0.00,,,-99.99,,2013-05-24 20:11:00,
2013-05-24 16:21:00,62.0,52.0,-100.00,NW,305,3.0,9.0,69,0.00,,,-99.99,,2013-05-24 20:21:00,
2013-05-24 16:32:00,61.0,51.0,-100.00,West,265,6.0,11.0,68,0.00,,,-99.99,,2013-05-24 20:32:00,
2013-05-24 16:42:00,60.0,50.0,-100.00,West,270,4.0,12.0,69,0.00,,,-99.99,,2013-05-24 20:42:00,
2013-05-24 16:52:00,58.0,49.0,-100.00,North,-999,-999.0,-999.0,72,0.00,,,-99.99,,2013-05-24 20:52:00,
2013-05-24 17:01:00,58.0,50.0,-100.00,SW,230,2.0,10.0,72,0.00,,,-99.99,,2013-05-24 21:01:00,
2013-05-24 17:11:00,59.0,49.0,-100.00,WNW,285,3.0,9.0,71,0.00,,,-99.99,,2013-05-24 21:11:00,
2013-05-24 17:21:00,58.0,49.0,-100.00,North,-999,-999.0,-999.0,72,0.00,,,-99.99,,2013-05-24 21:21:00,
2013-05-24 17:33:00,58.0,49.0,-100.00,NW,310,2.0,12.0,72,0.00,,,-99.99,,2013-05-24 21:33:00,
2013-05-24 17:42:00,58.0,49.0,-100.00,NNW,340,2.0,11.0,71,0.00,,,-99.99,,2013-05-24 21:42:00,
2013-05-24 17:53:00,59.0,49.0,-100.00,NNW,340,1.0,10.0,68,0.00,,,-99.99,,2013-05-24 21:53:00,
2013-05-24 18:03:00,58.0,48.0,-100.00,West,265,4.0,11.0,69,0.00,,,-99.99,,2013-05-24 22:03:00,
2013-05-24 18:12:00,57.0,48.0,-100.00,North,-999,-999.0,-999.0,71,0.00,,,-99.99,,2013-05-24 22:12:00,
2013-05-24 18:22:00,56.0,47.0,-100.00,WNW,290,4.0,15.0,71,0.00,,,-99.99,,2013-05-24 22:22:00,
2013-05-24 18:33:00,56.0,47.0,-100.00,East,100,2.0,12.0,72,0.00,,,-99.99,,2013-05-24 22:33:00,
2013-05-24 18:52:00,55.0,47.0,-100.00,West,265,4.0,14.0,73,0.00,,,-99.99,,2013-05-24 22:52:00,
2013-05-24 19:02:00,55.0,47.0,-100.00,NW,315,3.0,11.0,74,0.00,,,-99.99,,2013-05-24 23:02:00,
2013-05-24 19:11:00,54.0,46.0,-100.00,WSW,245,4.0,13.0,73,0.00,,,-99.99,,2013-05-24 23:11:00,
2013-05-24 19:22:00,54.0,46.0,-100.00,NW,310,2.0,12.0,76,0.03,,,-99.99,,2013-05-24 23:22:00,
2013-05-24 19:32:00,53.0,47.0,-100.00,West,265,2.0,16.0,80,0.03,,,-99.99,,2013-05-24 23:32:00,
2013-05-24 19:42:00,52.0,47.0,-100.00,North,0,1.0,12.0,84,0.01,,,-99.99,,2013-05-24 23:42:00,
2013-05-24 19:52:00,51.0,47.0,-100.00,North,-999,-999.0,-999.0,86,0.00,,,-99.99,,2013-05-24 23:52:00,
2013-05-24 20:01:00,51.0,47.0,-100.00,North,5,2.0,7.0,86,0.00,,,-99.99,,2013-05-25 00:01:00,
2013-05-24 20:12:00,51.0,47.0,-100.00,West,265,2.0,9.0,85,0.00,,,-99.99,,2013-05-25 00:12:00,
2013-05-24 20:21:00,51.0,46.0,-100.00,NNW,340,3.0,9.0,84,0.00,,,-99.99,,2013-05-25 00:21:00,
2013-05-24 20:32:00,51.0,46.0,-100.00,West,260,1.0,7.0,84,0.00,,,-99.99,,2013-05-25 00:32:00,
2013-05-24 20:42:00,51.0,46.0,-100.00,WSW,255,2.0,7.0,84,0.00,,,-99.99,,2013-05-25 00:42:00,
2013-05-24 20:51:00,50.0,46.0,-100.00,North,355,2.0,9.0,83,0.00,,,-99.99,,2013-05-25 00:51:00,
2013-05-24 21:01:00,50.0,45.0,-100.00,West,275,2.0,8.0,83,0.00,,,-99.99,,2013-05-25 01:01:00,
2013-05-24 21:11:00,50.0,46.0,-100.00,West,270,1.0,6.0,84,0.00,,,-99.99,,2013-05-25 01:11:00,
2013-05-24 21:22:00,50.0,46.0,-100.00,WNW,290,1.0,4.0,84,0.00,,,-99.99,,2013-05-25 01:22:00,
2013-05-24 21:32:00,50.0,46.0,-100.00,WNW,285,3.0,6.0,85,0.01,,,-99.99,,2013-05-25 01:32:00,
2013-05-24 21:42:00,50.0,46.0,-100.00,West,265,1.0,6.0,86,0.21,,,-99.99,,2013-05-25 01:42:00,
2013-05-24 21:52:00,49.0,47.0,-100.00,West,280,2.0,7.0,91,0.03,,,-99.99,,2013-05-25 01:52:00,
2013-05-24 22:02:00,49.0,47.0,-100.00,West,270,0.0,6.0,92,0.00,,,-99.99,,2013-05-25 02:02:00,
2013-05-24 22:12:00,49.0,47.0,-100.00,West,280,1.0,4.0,94,0.07,,,-99.99,,2013-05-25 02:12:00,
2013-05-24 22:21:00,49.0,48.0,-100.00,West,260,1.0,4.0,94,0.04,,,-99.99,,2013-05-25 02:21:00,
2013-05-24 22:32:00,49.0,48.0,-100.00,SE,135,1.0,3.0,96,0.08,,,-99.99,,2013-05-25 02:32:00,
2013-05-24 22:42:00,49.0,48.0,-100.00,NW,320,1.0,4.0,96,0.03,,,-99.99,,2013-05-25 02:42:00,
2013-05-24 22:51:00,49.0,48.0,-100.00,WNW,290,1.0,5.0,96,0.00,,,-99.99,,2013-05-25 02:51:00,
2013-05-24 23:02:00,49.0,48.0,-100.00,West,270,2.0,4.0,97,0.01,,,-99.99,,2013-05-25 03:02:00,
2013-05-24 23:11:00,49.0,48.0,-100.00,SW,225,1.0,2.0,97,0.00,,,-99.99,,2013-05-25 03:11:00,
2013-05-24 23:32:00,49.0,48.0,-100.00,ENE,70,1.0,4.0,98,0.01,,,-99.99,,2013-05-25 03:32:00,
2013-05-24 23:43:00,49.0,48.0,-100.00,North,10,1.0,3.0,98,0.01,,,-99.99,,2013-05-25 03:43:00,
2013-05-24 23:53:00,48.0,48.0,-100.00,NW,310,2.0,5.0,98,0.07,,,-99.99,,2013-05-25 03:53:00,